Flight Track Log - Related Links

Times and Time Zones

All times are in EDT time to prevent confusion due to time zone crossing. See the EJA687 flight status page for this flight to view local times or setup timezone preferences in your user account.

Time Position Orientation Groundspeed Altitude Reporting Facility
EDT Latitude Longitude Course Direction KTS MPH feet Rate Location/Type
Sun 10:22:15 AM 26.2781 -81.7462 104° East  Level FlightAware Approximate
Sun 10:23:13 AM 26.2658 -81.6892 356° North 271 312 5,700  Level Miami Center
Sun 10:24:13 AM 26.3428 -81.6944 356° North 300 345 8,600 2,750 Climbing Miami Center
Sun 10:25:13 AM 26.4200 -81.7000 353° North 288 331 11,200 2,050 Climbing Miami Center
Sun 10:26:13 AM 26.4969 -81.7100 357° North 288 331 12,700 1,650 Climbing Miami Center
Sun 10:27:13 AM 26.5864 -81.7161 355° North 300 345 14,500 1,750 Climbing Miami Center
Sun 10:28:13 AM 26.6758 -81.7244 358° North 312 359 16,200 1,700 Climbing Miami Center
Sun 10:29:13 AM 26.7697 -81.7283 355° North 318 366 17,900 1,650 Climbing Miami Center
Sun 10:30:13 AM 26.8633 -81.7369 357° North 331 381 19,500 1,500 Climbing Miami Center
Sun 10:31:13 AM 26.9611 -81.7433 352° North 336 387 20,900 1,500 Climbing Miami Center
Sun 10:32:13 AM 27.0714 -81.7597 342° North 347 399 22,500 1,050 Climbing Miami Center
Sun 10:33:13 AM 27.1600 -81.7914 347° North 359 413 23,000 400 Climbing Miami Center
Sun 10:34:13 AM 27.2572 -81.8167 16° North 364 419 23,300 500 Climbing Miami Center
Sun 10:35:13 AM 27.3628 -81.7836 18° North 369 425 24,000 850 Climbing Miami Center
Sun 10:36:13 AM 27.4769 -81.7417 19° North 376 433 25,000 550 Climbing Miami Center
Sun 10:37:13 AM 27.5825 -81.7017 14° North 389 448 25,100 500 Climbing Miami Center
Sun 10:38:13 AM 27.6836 -81.6733 North 403 464 26,000 500 Climbing Miami Center
Sun 10:39:13 AM 27.7967 -81.6661 North 398 458 26,100 650 Climbing Miami Center
Sun 10:40:13 AM 27.9011 -81.6589 North 391 450 27,300 950 Climbing Miami Center
Sun 10:41:13 AM 28.0142 -81.6519 North 391 450 28,000 350 Climbing Miami Center
Sun 10:42:13 AM 28.1417 -81.6433 North 397 457 28,000 350 Level Miami Center
Sun 10:43:13 AM 28.2650 -81.6367 North 423 487 28,700 500 Climbing Miami Center
Sun 10:44:13 AM 28.3861 -81.6300 North 428 493 29,000 750 Climbing Miami Center
Sun 10:45:13 AM 28.5053 -81.6233 North 436 502 30,200 1,436 Climbing Miami Center
Sun 10:46:10 AM 28.6194 -81.6178 North 426 490 31,800 1,487 Climbing Jacksonville Center
Sun 10:47:10 AM 28.7319 -81.6117 North 432 497 33,100 1,150 Climbing Jacksonville Center
Sun 10:48:10 AM 28.8467 -81.6056 North 420 483 34,100 1,050 Climbing Jacksonville Center
Sun 10:49:10 AM 28.9636 -81.5992 North 420 483 35,200 1,150 Climbing Jacksonville Center
Sun 10:50:10 AM 29.0803 -81.5906 North 420 483 36,400 900 Climbing Jacksonville Center
Sun 10:51:10 AM 29.1972 -81.5819 North 420 483 37,000 300 Climbing Jacksonville Center
Sun 10:52:10 AM 29.3161 -81.5756 North 420 483 37,000 450 Level Jacksonville Center
Sun 10:53:10 AM 29.4331 -81.5692 North 426 490 37,900 1,000 Climbing Jacksonville Center
Sun 10:54:10 AM 29.5519 -81.5606 North 421 484 39,000 1,200 Climbing Jacksonville Center
Sun 10:55:10 AM 29.6667 -81.5542 North 421 484 40,300 1,000 Climbing Jacksonville Center
Sun 10:56:10 AM 29.7792 -81.5478 North 415 478 41,000 350 Climbing Jacksonville Center
Sun 10:57:10 AM 29.8919 -81.5389 North 409 471 41,000  Level Jacksonville Center
Sun 10:58:10 AM 30.0067 -81.5325 North 404 465 41,000  Level Jacksonville Center
Sun 10:59:10 AM 30.1214 -81.5261 North 404 465 41,000  Level Jacksonville Center
Sun 11:00:10 AM 30.2361 -81.5150 North 404 465 41,000  Level Jacksonville Center
Sun 11:01:10 AM 30.3508 -81.5133 348° North 404 465 41,000  Level Jacksonville Center
Sun 11:02:10 AM 30.4639 -81.5406 347° North 404 465 41,000  Level Jacksonville Center
Sun 11:03:10 AM 30.5644 -81.5681 345° North 404 465 41,000  Level Jacksonville Center
Sun 11:04:10 AM 30.6714 -81.6006 348° North 404 465 41,000  Level Jacksonville Center
Sun 11:05:10 AM 30.7781 -81.6281 351° North 399 459 41,000  Level Jacksonville Center
Sun 11:06:10 AM 30.8869 -81.6483 351° North 394 453 41,000  Level Jacksonville Center
Sun 11:07:10 AM 30.9997 -81.6686 351° North 394 453 41,000  Level Jacksonville Center
Sun 11:08:10 AM 31.1086 -81.6892 352° North 394 453 41,000  Level Jacksonville Center
Sun 11:09:10 AM 31.2172 -81.7072 352° North 394 453 41,000  Level Jacksonville Center
Sun 11:10:10 AM 31.3261 -81.7253 350° North 389 448 41,000  Level Jacksonville Center
Sun 11:11:10 AM 31.4453 -81.7506 352° North 389 448 41,000  Level Jacksonville Center
Sun 11:12:10 AM 31.5539 -81.7686 351° North 394 453 41,000  Level Jacksonville Center
Sun 11:13:10 AM 31.6544 -81.7869 351° North 394 453 41,000  Level Jacksonville Center
Sun 11:15:52 AM 31.9628 -81.8431 352° North 389 448 41,000  Level Atlanta Center
Sun 11:16:53 AM 32.0739 -81.8622 351° North 420 483 41,000  Level Atlanta Center
Sun 11:17:52 AM 32.1806 -81.8817 351° North 394 453 41,000  Level Atlanta Center
Sun 11:18:52 AM 32.2769 -81.8992 351° North 404 465 41,000  Level Atlanta Center
Sun 11:19:52 AM 32.3858 -81.9186 351° North 399 459 41,000  Level Atlanta Center
Sun 11:20:53 AM 32.4947 -81.9381 350° North 394 453 41,000  Level Atlanta Center
Sun 11:21:52 AM 32.6014 -81.9603 352° North 388 447 41,000  Level Atlanta Center
Sun 11:22:53 AM 32.7186 -81.9797 351° North 388 447 41,000  Level Atlanta Center
Sun 11:23:52 AM 32.8256 -81.9994 358° North 388 447 41,000  Level Atlanta Center
Sun 11:24:52 AM 32.9342 -82.0044 North 388 447 41,000  Level Atlanta Center
Sun 11:25:53 AM 33.0447 -81.9994 North 388 447 41,000  Level Atlanta Center
Sun 11:26:52 AM 33.1511 -81.9969 North 382 440 41,000  Level Atlanta Center
Sun 11:27:53 AM 33.2594 -81.9917 North 382 440 41,000  Level Atlanta Center
Sun 11:28:52 AM 33.3681 -81.9867 North 382 440 41,000  Level Atlanta Center
Sun 11:29:52 AM 33.4786 -81.9842 North 382 440 41,000  Level Atlanta Center
Sun 11:30:52 AM 33.5869 -81.9792 North 387 445 41,000  Level Atlanta Center
Sun 11:31:52 AM 33.6997 -81.9739 North 387 445 41,000  Level Atlanta Center
Sun 11:32:52 AM 33.8081 -81.9711 North 387 445 41,000  Level Atlanta Center
Sun 11:33:53 AM 33.9083 -81.9689 North 382 440 41,000  Level Atlanta Center
Sun 11:34:52 AM 34.0167 -81.9636 North 387 445 41,000  Level Atlanta Center
Sun 11:35:52 AM 34.1253 -81.9586 North 387 445 41,000  Level Atlanta Center
Sun 11:36:52 AM 34.2317 -81.9558 North 382 440 41,000  Level Atlanta Center
Sun 11:37:52 AM 34.3419 -81.9481 18° North 382 440 41,000  Level Atlanta Center
Sun 11:38:53 AM 34.4458 -81.9078 20° North 387 445 41,000  Level Atlanta Center
Sun 11:39:52 AM 34.5492 -81.8622 17° North 387 445 41,000  Level Atlanta Center
Sun 11:40:53 AM 34.6633 -81.8189 21° North 392 451 41,000  Level Atlanta Center
Sun 11:41:52 AM 34.7667 -81.7708 20° North 392 451 41,000  Level Atlanta Center
Sun 11:42:52 AM 34.8703 -81.7247 21° North 386 444 41,000  Level Atlanta Center
Sun 11:43:53 AM 34.9736 -81.6764 19° North 386 444 41,000  Level Atlanta Center
Sun 11:44:52 AM 35.0750 -81.6328 20° North 386 444 41,000  Level Atlanta Center
Sun 11:45:52 AM 35.1783 -81.5867 19° North 386 444 41,000  Level Atlanta Center
Sun 11:46:52 AM 35.2819 -81.5428 20° North 386 444 41,000  Level Atlanta Center
Sun 11:47:52 AM 35.3728 -81.5019 19° North 386 444 41,000  Level Atlanta Center
Sun 11:48:52 AM 35.4742 -81.4581 21° North 380 437 41,000  Level Atlanta Center
Sun 11:49:52 AM 35.5753 -81.4114 21° North 388 447 41,000  Level Atlanta Center
Sun 11:50:52 AM 35.6828 -81.3594 18° North 388 447 41,000  Level Atlanta Center
Sun 11:51:52 AM 35.7903 -81.3175 22° Northeast 388 447 41,000  Level Atlanta Center
Sun 11:52:52 AM 35.8853 -81.2706 21° North 373 429 41,000  Level Atlanta Center
Sun 11:53:52 AM 35.9822 -81.2236 20° North 368 423 41,000  Level Atlanta Center
Sun 11:54:52 AM 36.0792 -81.1792 20° North 368 423 41,000  Level Atlanta Center
Sun 11:55:52 AM 36.1783 -81.1347 21° North 368 423 41,000  Level Atlanta Center
Sun 11:56:52 AM 36.2628 -81.0956 20° North 368 423 41,000  Level Atlanta Center
Sun 11:57:52 AM 36.3597 -81.0506 20° North 368 423 41,000  Level Atlanta Center
Sun 11:58:52 AM 36.4567 -81.0058 21° North 368 423 41,000  Level Atlanta Center
Sun 11:59:52 AM 36.5514 -80.9608 20° North 368 423 41,000  Level Atlanta Center
Sun 12:00:53 PM 36.6442 -80.9183 21° North 363 418 41,000  Level Atlanta Center
Sun 12:02:50 PM 36.8364 -80.8264 18° North 353 406 41,000  Level Washington Center
Sun 12:03:50 PM 36.9256 -80.7908 20° North 346 398 41,000  Level Washington Center
Sun 12:04:51 PM 37.0194 -80.7478 19° North 346 398 41,000  Level Washington Center
Sun 12:05:51 PM 37.1108 -80.7072 14° North 346 398 41,000  Level Washington Center
Sun 12:06:52 PM 37.1953 -80.6814 15° North 352 405 41,000  Level Washington Center
Sun 12:07:50 PM 37.2906 -80.6486 14° North 347 399 41,000  Level Washington Center
Sun 12:08:51 PM 37.3836 -80.6183 15° North 342 394 41,000  Level Washington Center
Sun 12:09:51 PM 37.4789 -80.5853 14° North 342 394 41,000  Level Washington Center
Sun 12:10:51 PM 37.5825 -80.5528 16° North 348 400 41,000  Level Washington Center
Sun 12:11:52 PM 37.6758 -80.5194 14° North 348 400 41,000  Level Washington Center
Sun 12:12:50 PM 37.7708 -80.4889 15° North 342 394 41,000  Level Washington Center
Sun 12:13:51 PM 37.8639 -80.4581 16° North 342 394 41,000  Level Washington Center
Sun 12:14:49 PM 37.9569 -80.4247 15° North 342 394 41,000  Level Washington Center
Sun 12:15:50 PM 38.0417 -80.3958 16° North 342 394 41,000  Level Washington Center
Sun 12:16:50 PM 38.1347 -80.3622 13° North 342 394 41,000  Level Washington Center
Sun 12:17:51 PM 38.2297 -80.3339 16° North 342 394 41,000  Level Washington Center
Sun 12:18:52 PM 38.3208 -80.3000 15° North 342 394 41,000  Level Washington Center
Sun 12:19:52 PM 38.4264 -80.2644 18° North 342 394 41,000  Level Washington Center
Sun 12:20:50 PM 38.5175 -80.2275 33° Northeast 342 394 41,000  Level Washington Center
Sun 12:21:50 PM 38.6036 -80.1558 37° Northeast 347 399 41,000  Level Washington Center
Sun 12:23:48 PM 38.7631 -80.0028 24° Northeast 379 436 41,000  Level Cleveland Center
Sun 12:24:48 PM 38.8544 -79.9514 21° North 364 419 41,000  Level Cleveland Center
Sun 12:25:48 PM 38.9458 -79.9053 20° North 352 405 41,000  Level Cleveland Center
Sun 12:26:48 PM 39.0414 -79.8617 22° Northeast 352 405 41,000  Level Cleveland Center
Sun 12:27:48 PM 39.1350 -79.8125 21° North 352 405 41,000  Level Cleveland Center
Sun 12:28:48 PM 39.2283 -79.7658 22° Northeast 352 405 41,000  Level Cleveland Center
Sun 12:29:48 PM 39.3239 -79.7164 22° Northeast 359 413 41,000  Level Cleveland Center
Sun 12:30:48 PM 39.4194 -79.6669 21° North 359 413 41,000  Level Cleveland Center
Sun 12:31:48 PM 39.5150 -79.6197 22° Northeast 359 413 41,000  Level Cleveland Center
Sun 12:32:48 PM 39.6103 -79.5700 21° North 364 419 41,000  Level Cleveland Center
Sun 12:33:48 PM 39.7058 -79.5225 22° Northeast 369 425 41,000 -300 Level Cleveland Center
Sun 12:34:48 PM 39.8011 -79.4725 21° North 369 425 40,400 -900 Descending Cleveland Center
Sun 12:35:48 PM 39.8967 -79.4250 22° Northeast 369 425 39,200 -700 Descending Cleveland Center
Sun 12:36:48 PM 39.9878 -79.3772 22° Northeast 363 418 39,000 -100 Descending Cleveland Center
Sun 12:37:48 PM 40.0792 -79.3294 22° Northeast 353 406 39,000  Level Cleveland Center
Sun 12:38:48 PM 40.1661 -79.2844 21° North 343 395 39,000 -300 Level Cleveland Center
Sun 12:39:48 PM 40.2572 -79.2392 23° Northeast 343 395 38,400 -1,100 Descending Cleveland Center
Sun 12:40:48 PM 40.3506 -79.1883 21° North 348 400 36,800 -1,550 Descending Cleveland Center
Sun 12:41:48 PM 40.4436 -79.1425 23° Northeast 348 400 35,300 -1,550 Descending Cleveland Center
Sun 12:42:48 PM 40.5369 -79.0914 22° Northeast 353 406 33,700 -1,150 Descending Cleveland Center
Sun 12:43:48 PM 40.6383 -79.0372 22° Northeast 363 418 33,000 -400 Descending Cleveland Center
Sun 12:44:48 PM 40.7419 -78.9828 21° North 384 442 32,900 -950 Descending Cleveland Center
Sun 12:45:48 PM 40.8433 -78.9308 22° Northeast 390 449 31,100 -1,400 Descending Cleveland Center
Sun 12:46:48 PM 40.9467 -78.8758 21° North 390 449 30,100 -1,000 Descending Cleveland Center
Sun 12:47:48 PM 41.0564 -78.8208 23° Northeast 395 455 29,100 -1,000 Descending Cleveland Center
Sun 12:48:48 PM 41.1597 -78.7628 21° North 395 455 28,100 -550 Descending Cleveland Center
Sun 12:49:48 PM 41.2672 -78.7075 23° Northeast 400 460 28,000 -50 Descending Cleveland Center
Sun 12:50:48 PM 41.3725 -78.6489 23° Northeast 406 467 28,000  Level Cleveland Center
Sun 12:51:48 PM 41.4861 -78.5847 22° Northeast 406 467 28,000  Level Cleveland Center
Sun 12:52:48 PM 41.5894 -78.5286 22° Northeast 406 467 28,000  Level Cleveland Center
Sun 12:53:48 PM 41.6883 -78.4756 23° Northeast 400 460 28,000  Level Cleveland Center
Sun 12:54:48 PM 41.7875 -78.4194 22° Northeast 389 448 28,000 -500 Level Cleveland Center
Sun 12:55:48 PM 41.8906 -78.3628 22° Northeast 389 448 27,000 -1,550 Descending Cleveland Center
Sun 12:56:48 PM 41.9936 -78.3061 23° Northeast 394 453 24,900 -2,100 Descending Cleveland Center
Sun 12:57:48 PM 42.0928 -78.2494 21° North 388 447 22,800 -2,050 Descending Cleveland Center
Sun 12:58:48 PM 42.1833 -78.2014 22° Northeast 388 447 20,800 -1,950 Descending Cleveland Center
Sun 12:59:48 PM 42.2844 -78.1469 23° Northeast 375 432 18,900 -1,800 Descending Cleveland Center
Sun 01:00:48 PM 42.3731 -78.0958 22° Northeast 352 405 17,200 -1,850 Descending Cleveland Center
Sun 01:01:48 PM 42.4617 -78.0472 22° Northeast 347 399 15,200 -1,944 Descending Cleveland Center
Sun 01:02:36 PM 42.5294 -78.0108 23° Northeast 339 390 13,700 -1,806 Descending Cleveland Center
Sun 01:03:31 PM 42.6078 -77.9653 23° Northeast 330 380 12,100 -1,617 Descending Cleveland Center
Sun 01:04:31 PM 42.6797 -77.9228 21° North 297 342 10,600 -1,488 Descending Cleveland Center
Sun 01:05:32 PM 42.7517 -77.8856 North 266 306 9,100 -1,820 Descending Cleveland Center
Sun 01:06:33 PM 42.8222 -77.8714 14° North 255 293 6,900 -2,173 Descending Cleveland Center
Sun 01:07:39 PM 42.8989 -77.8453 20° North 244 281 4,500 -2,033 Descending Cleveland Center
Sun 01:08:34 PM 42.9544 -77.8175 32° Northeast 253 291 2,800 -992 Descending Cleveland Center
Sun 01:09:40 PM 43.0136 -77.7664 32° Northeast 219 252 2,500 -472 Descending Cleveland Center
Sun 01:10:41 PM 43.0525 -77.7333 28° Northeast 157 181 1,800 -689 Descending Cleveland Center
Sun 01:11:42 PM 43.0853 -77.7092 28° Northeast 135 155 1,100 -689 Descending Cleveland Center

Login

Don't have an account? Register now (free) for customized features, flight alerts, and more!